createdAt,value
2018-05-13T00:00:35.068Z,0.00
2018-05-13T00:01:35.027Z,0.00
2018-05-13T00:02:35.070Z,0.00
2018-05-13T00:03:35.015Z,0.00
2018-05-13T00:04:34.979Z,0.00
2018-05-13T00:05:34.961Z,0.00
2018-05-13T00:06:34.974Z,0.00
2018-05-13T00:07:34.936Z,0.00
2018-05-13T00:08:34.953Z,0.00
2018-05-13T00:09:34.903Z,0.00
2018-05-13T00:10:34.895Z,0.00
2018-05-13T00:11:34.883Z,0.00
2018-05-13T00:12:34.868Z,0.00
2018-05-13T00:13:34.842Z,0.00
2018-05-13T00:14:34.820Z,0.00
2018-05-13T00:15:34.829Z,0.00
2018-05-13T00:16:34.818Z,0.00
2018-05-13T00:17:34.816Z,0.00
2018-05-13T00:18:34.810Z,0.00
2018-05-13T00:19:34.746Z,0.00
2018-05-13T00:20:34.762Z,0.00
2018-05-13T00:21:34.712Z,0.00
2018-05-13T00:22:34.801Z,0.00
2018-05-13T00:23:34.679Z,0.00
2018-05-13T00:24:34.671Z,0.00
2018-05-13T00:25:34.662Z,0.00
2018-05-13T00:26:34.643Z,0.00
2018-05-13T00:27:34.614Z,0.00
2018-05-13T00:28:34.605Z,0.00
2018-05-13T00:29:34.601Z,0.00
2018-05-13T00:30:34.564Z,0.00
2018-05-13T00:31:34.548Z,0.00
2018-05-13T00:32:34.531Z,0.00
2018-05-13T00:33:34.536Z,0.00
2018-05-13T00:34:34.504Z,0.00
2018-05-13T00:35:34.495Z,0.00
2018-05-13T00:36:34.481Z,0.00
2018-05-13T00:37:34.452Z,0.00
2018-05-13T00:38:34.464Z,0.00
2018-05-13T00:39:34.437Z,0.00
2018-05-13T00:40:34.407Z,0.00
2018-05-13T00:41:34.389Z,0.00
2018-05-13T00:42:34.380Z,0.00
2018-05-13T00:43:34.363Z,0.00
2018-05-13T00:44:34.420Z,0.00
2018-05-13T00:45:34.327Z,0.00
2018-05-13T00:46:34.482Z,0.00
2018-05-13T00:47:34.322Z,0.00
2018-05-13T00:48:34.292Z,0.00
2018-05-13T00:49:34.257Z,0.00
2018-05-13T00:50:34.358Z,0.00
2018-05-13T00:51:34.242Z,0.00
2018-05-13T00:52:34.240Z,0.00
2018-05-13T00:53:34.204Z,0.00
2018-05-13T00:54:34.210Z,0.00
2018-05-13T00:55:34.430Z,0.00
2018-05-13T00:56:34.163Z,0.00
2018-05-13T00:57:34.136Z,0.00
2018-05-13T00:58:34.151Z,0.00
2018-05-13T00:59:34.140Z,0.00
2018-05-13T01:00:34.088Z,0.00
2018-05-13T01:01:34.083Z,0.00
2018-05-13T01:02:34.058Z,0.00
2018-05-13T01:03:34.122Z,0.00
2018-05-13T01:04:34.037Z,0.00
2018-05-13T01:05:34.013Z,0.00
2018-05-13T01:06:34.011Z,0.00
2018-05-13T01:07:33.977Z,0.00
2018-05-13T01:08:33.953Z,0.00
2018-05-13T01:09:33.938Z,0.00
2018-05-13T01:10:33.974Z,0.00
2018-05-13T01:11:33.943Z,0.00
2018-05-13T01:12:33.959Z,0.00
2018-05-13T01:13:33.907Z,0.00
2018-05-13T01:14:36.552Z,0.00
2018-05-13T01:15:33.903Z,0.00
2018-05-13T01:16:33.853Z,0.00
2018-05-13T01:17:33.869Z,0.00
2018-05-13T01:18:33.940Z,0.00
2018-05-13T01:19:33.792Z,0.00
2018-05-13T01:20:33.835Z,0.00
2018-05-13T01:21:33.792Z,0.00
2018-05-13T01:22:33.861Z,0.00
2018-05-13T01:23:33.787Z,0.00
2018-05-13T01:24:33.702Z,0.00
2018-05-13T01:25:33.771Z,0.00
2018-05-13T01:26:33.697Z,0.00
2018-05-13T01:27:33.688Z,0.00
2018-05-13T01:28:33.635Z,0.00
2018-05-13T01:29:33.629Z,0.00
2018-05-13T01:30:33.608Z,0.00
2018-05-13T01:31:33.599Z,0.00
2018-05-13T01:32:40.749Z,0.00
2018-05-13T01:33:33.562Z,0.00
2018-05-13T01:34:33.538Z,0.00
2018-05-13T01:35:33.518Z,0.00
2018-05-13T01:36:33.516Z,0.00
2018-05-13T01:37:33.525Z,0.00
2018-05-13T01:38:33.488Z,0.00
2018-05-13T01:39:33.615Z,0.00
2018-05-13T01:40:33.471Z,0.00
2018-05-13T01:41:33.426Z,0.00
2018-05-13T01:42:33.487Z,0.00
2018-05-13T01:43:33.430Z,0.00
2018-05-13T01:44:33.469Z,0.00
2018-05-13T01:45:33.372Z,0.00
2018-05-13T01:46:33.395Z,0.00
2018-05-13T01:47:33.345Z,0.00
2018-05-13T01:48:33.364Z,0.00
2018-05-13T01:49:33.320Z,0.00
2018-05-13T01:50:33.276Z,0.00
2018-05-13T01:51:33.290Z,0.00
2018-05-13T01:52:33.294Z,0.00
2018-05-13T01:53:33.408Z,0.00
2018-05-13T01:54:33.255Z,0.00
2018-05-13T01:55:33.206Z,0.00
2018-05-13T01:56:33.233Z,0.00
2018-05-13T01:57:33.178Z,0.00
2018-05-13T01:58:33.193Z,0.00
2018-05-13T01:59:33.127Z,0.00
2018-05-13T02:00:33.127Z,0.00
2018-05-13T02:01:33.123Z,0.00
2018-05-13T02:02:33.109Z,0.00
2018-05-13T02:03:33.086Z,0.00
2018-05-13T02:04:33.051Z,0.00
2018-05-13T02:05:33.040Z,0.00
2018-05-13T02:06:33.045Z,0.00
2018-05-13T02:07:33.001Z,0.00
2018-05-13T02:08:33.008Z,0.00
2018-05-13T02:09:32.964Z,0.00
2018-05-13T02:10:32.979Z,0.00
2018-05-13T02:11:32.931Z,0.00
2018-05-13T02:12:32.950Z,0.00
2018-05-13T02:13:32.940Z,0.00
2018-05-13T02:14:32.901Z,0.00
2018-05-13T02:15:32.908Z,0.00
2018-05-13T02:16:32.877Z,0.00
2018-05-13T02:17:32.854Z,0.00
2018-05-13T02:18:32.850Z,0.00
2018-05-13T02:19:32.842Z,0.00
2018-05-13T02:20:32.827Z,0.00
2018-05-13T02:21:32.791Z,0.00
2018-05-13T02:22:32.755Z,0.00
2018-05-13T02:23:32.739Z,0.00
2018-05-13T02:24:32.721Z,0.00
2018-05-13T02:25:32.730Z,0.00
2018-05-13T02:26:32.721Z,0.00
2018-05-13T02:27:32.701Z,0.00
2018-05-13T02:28:32.654Z,0.00
2018-05-13T02:29:32.658Z,0.00
2018-05-13T02:30:32.625Z,0.00
2018-05-13T02:31:32.717Z,0.00
2018-05-13T02:32:32.617Z,0.00
2018-05-13T02:33:32.594Z,0.00
2018-05-13T02:34:32.602Z,0.00
2018-05-13T02:35:32.548Z,0.00
2018-05-13T02:36:32.597Z,0.00
2018-05-13T02:37:32.519Z,0.00
2018-05-13T02:38:32.566Z,0.00
2018-05-13T02:39:32.484Z,0.00
2018-05-13T02:40:32.492Z,0.00
2018-05-13T02:41:32.469Z,0.00
2018-05-13T02:42:32.433Z,0.00
2018-05-13T02:43:32.432Z,0.00
2018-05-13T02:44:32.440Z,0.00
2018-05-13T02:45:32.393Z,0.00
2018-05-13T02:46:32.363Z,0.00
2018-05-13T02:47:32.363Z,0.00
2018-05-13T02:48:32.347Z,0.00
2018-05-13T02:49:32.318Z,0.00
2018-05-13T02:50:32.293Z,0.00
2018-05-13T02:51:32.307Z,0.00
2018-05-13T02:52:32.286Z,0.00
2018-05-13T02:53:32.243Z,0.00
2018-05-13T02:54:32.223Z,0.00
2018-05-13T02:55:32.213Z,0.00
2018-05-13T02:56:32.206Z,0.00
2018-05-13T02:57:32.193Z,0.00
2018-05-13T02:58:32.180Z,0.00
2018-05-13T02:59:32.178Z,0.00
2018-05-13T03:00:32.173Z,0.00
2018-05-13T03:01:32.143Z,0.00
2018-05-13T03:02:32.135Z,0.00
2018-05-13T03:03:32.105Z,0.00
2018-05-13T03:04:32.099Z,0.00
2018-05-13T03:05:32.120Z,0.00
2018-05-13T03:06:32.054Z,0.00
2018-05-13T03:07:32.065Z,0.00
2018-05-13T03:08:32.018Z,0.00
2018-05-13T03:09:31.993Z,0.00
2018-05-13T03:10:32.011Z,0.00
2018-05-13T03:11:31.966Z,0.00
2018-05-13T03:12:31.957Z,4.00
2018-05-13T03:13:31.914Z,4.00
2018-05-13T03:14:31.926Z,0.00
2018-05-13T03:15:31.896Z,0.00
2018-05-13T03:16:31.874Z,4.00
2018-05-13T03:17:31.856Z,4.00
2018-05-13T03:18:31.836Z,4.00
2018-05-13T03:19:31.839Z,4.00
2018-05-13T03:20:31.794Z,4.00
2018-05-13T03:21:31.799Z,4.00
2018-05-13T03:22:31.765Z,8.00
2018-05-13T03:23:31.758Z,4.00
2018-05-13T03:24:31.783Z,8.00
2018-05-13T03:25:31.723Z,8.00
2018-05-13T03:26:31.694Z,12.00
2018-05-13T03:27:31.679Z,12.00
2018-05-13T03:28:31.672Z,12.00
2018-05-13T03:29:31.649Z,16.00
2018-05-13T03:30:31.722Z,16.00
2018-05-13T03:31:31.663Z,20.00
2018-05-13T03:32:31.686Z,20.00
2018-05-13T03:33:31.587Z,24.00
2018-05-13T03:34:31.588Z,24.00
2018-05-13T03:35:31.560Z,24.00
2018-05-13T03:36:31.536Z,28.00
2018-05-13T03:37:31.515Z,32.00
2018-05-13T03:38:31.517Z,36.00
2018-05-13T03:39:31.479Z,44.00
2018-05-13T03:40:31.481Z,48.00
2018-05-13T03:41:31.479Z,52.00
2018-05-13T03:42:31.440Z,56.00
2018-05-13T03:43:31.404Z,60.00
2018-05-13T03:44:31.395Z,64.00
2018-05-13T03:45:31.381Z,68.00
2018-05-13T03:46:31.354Z,72.00
2018-05-13T03:47:31.376Z,80.00
2018-05-13T03:48:31.356Z,88.00
2018-05-13T03:49:31.355Z,92.00
2018-05-13T03:50:31.363Z,104.00
2018-05-13T03:51:31.294Z,112.00
2018-05-13T03:52:31.267Z,128.00
2018-05-13T03:53:31.242Z,140.00
2018-05-13T03:54:31.221Z,152.00
2018-05-13T03:55:31.238Z,168.00
2018-05-13T03:56:31.178Z,184.00
2018-05-13T03:57:31.186Z,196.00
2018-05-13T03:58:31.166Z,216.00
2018-05-13T03:59:31.143Z,232.00
2018-05-13T04:00:31.127Z,248.00
2018-05-13T04:01:31.101Z,268.00
2018-05-13T04:02:31.088Z,288.00
2018-05-13T04:03:31.193Z,308.00
2018-05-13T04:04:31.077Z,332.00
2018-05-13T04:05:31.038Z,348.00
2018-05-13T04:06:31.019Z,368.00
2018-05-13T04:07:31.037Z,388.00
2018-05-13T04:08:31.003Z,412.00
2018-05-13T04:09:30.997Z,428.00
2018-05-13T04:10:30.941Z,444.00
2018-05-13T04:11:30.936Z,464.00
2018-05-13T04:12:30.929Z,480.00
2018-05-13T04:13:30.919Z,488.00
2018-05-13T04:14:30.904Z,492.00
2018-05-13T04:15:30.865Z,492.00
2018-05-13T04:16:30.877Z,492.00
2018-05-13T04:17:30.862Z,500.00
2018-05-13T04:18:30.808Z,508.00
2018-05-13T04:19:30.871Z,520.00
2018-05-13T04:20:30.817Z,536.00
2018-05-13T04:21:30.784Z,548.00
2018-05-13T04:22:30.825Z,552.00
2018-05-13T04:23:30.811Z,548.00
2018-05-13T04:24:30.807Z,548.00
2018-05-13T04:25:30.744Z,544.00
2018-05-13T04:26:30.703Z,540.00
2018-05-13T04:27:30.657Z,524.00
2018-05-13T04:28:30.659Z,516.00
2018-05-13T04:29:30.659Z,508.00
2018-05-13T04:30:30.637Z,496.00
2018-05-13T04:31:30.621Z,464.00
2018-05-13T04:32:30.581Z,444.00
2018-05-13T04:33:30.570Z,444.00
2018-05-13T04:34:30.551Z,452.00
2018-05-13T04:35:30.519Z,488.00
2018-05-13T04:36:30.537Z,520.00
2018-05-13T04:37:30.517Z,536.00
2018-05-13T04:38:30.503Z,552.00
2018-05-13T04:39:30.515Z,556.00
2018-05-13T04:40:30.450Z,556.00
2018-05-13T04:41:30.426Z,588.00
2018-05-13T04:42:30.459Z,648.00
2018-05-13T04:43:30.462Z,696.00
2018-05-13T04:44:30.466Z,788.00
2018-05-13T04:45:30.363Z,880.00
2018-05-13T04:46:30.377Z,940.00
2018-05-13T04:47:30.327Z,960.00
2018-05-13T04:48:30.448Z,964.00
2018-05-13T04:49:30.290Z,956.00
2018-05-13T04:50:30.273Z,948.00
2018-05-13T04:51:30.282Z,956.00
2018-05-13T04:52:30.287Z,984.00
2018-05-13T04:53:30.228Z,1016.00
2018-05-13T04:54:30.205Z,1052.00
2018-05-13T04:55:30.193Z,1092.00
2018-05-13T04:56:30.220Z,1144.00
2018-05-13T04:57:30.185Z,1180.00
2018-05-13T04:58:30.139Z,1220.00
2018-05-13T04:59:30.131Z,1240.00
2018-05-13T05:00:30.126Z,1272.00
2018-05-13T05:01:30.128Z,1332.00
2018-05-13T05:02:30.103Z,1440.00
2018-05-13T05:03:30.134Z,1548.00
2018-05-13T05:04:30.130Z,1644.00
2018-05-13T05:05:30.056Z,1732.00
2018-05-13T05:06:30.015Z,1804.00
2018-05-13T05:07:29.997Z,1868.00
2018-05-13T05:08:29.988Z,1916.00
2018-05-13T05:09:30.009Z,1952.00
2018-05-13T05:10:29.956Z,1964.00
2018-05-13T05:11:29.942Z,1980.00
2018-05-13T05:12:29.940Z,2024.00
2018-05-13T05:13:29.910Z,2136.00
2018-05-13T05:14:29.876Z,2240.00
2018-05-13T05:15:29.869Z,2248.00
2018-05-13T05:16:29.851Z,2220.00
2018-05-13T05:17:29.831Z,2208.00
2018-05-13T05:18:29.823Z,2228.00
2018-05-13T05:19:29.837Z,2316.00
2018-05-13T05:20:29.814Z,2436.00
2018-05-13T05:21:29.765Z,2572.00
2018-05-13T05:22:29.790Z,2688.00
2018-05-13T05:23:29.781Z,2784.00
2018-05-13T05:24:29.745Z,2888.00
2018-05-13T05:25:29.706Z,3088.00
2018-05-13T05:26:29.771Z,3296.00
2018-05-13T05:27:29.685Z,3304.00
2018-05-13T05:28:29.688Z,3360.00
2018-05-13T05:29:29.643Z,3360.00
2018-05-13T05:30:29.650Z,3328.00
2018-05-13T05:31:29.617Z,3256.00
2018-05-13T05:32:29.620Z,3224.00
2018-05-13T05:33:29.607Z,3256.00
2018-05-13T05:34:29.596Z,3304.00
2018-05-13T05:35:29.608Z,3408.00
2018-05-13T05:36:29.534Z,3648.00
2018-05-13T05:37:29.549Z,3972.00
2018-05-13T05:38:29.591Z,4200.00
2018-05-13T05:39:29.511Z,4940.00
2018-05-13T05:40:29.517Z,4564.00
2018-05-13T05:41:29.567Z,4472.00
2018-05-13T05:42:29.497Z,4880.00
2018-05-13T05:43:29.447Z,4680.00
2018-05-13T05:44:29.417Z,4324.00
2018-05-13T05:45:29.405Z,3812.00
2018-05-13T05:46:29.409Z,3568.00
2018-05-13T05:47:29.380Z,3584.00
2018-05-13T05:48:29.467Z,3528.00
2018-05-13T05:49:29.358Z,3396.00
2018-05-13T05:50:29.340Z,3532.00
2018-05-13T05:51:29.346Z,3532.00
2018-05-13T05:52:29.321Z,3200.00
2018-05-13T05:53:29.305Z,3176.00
2018-05-13T05:54:29.281Z,3360.00
2018-05-13T05:55:29.308Z,3188.00
2018-05-13T05:56:29.248Z,3328.00
2018-05-13T05:57:29.310Z,3216.00
2018-05-13T05:58:29.213Z,3208.00
2018-05-13T05:59:29.215Z,3192.00
2018-05-13T06:00:29.195Z,3992.00
2018-05-13T06:01:29.168Z,3656.00
2018-05-13T06:02:29.232Z,3416.00
2018-05-13T06:03:29.144Z,3432.00
2018-05-13T06:04:29.152Z,3504.00
2018-05-13T06:05:29.111Z,3632.00
2018-05-13T06:06:29.097Z,3704.00
2018-05-13T06:07:29.099Z,3756.00
2018-05-13T06:08:29.075Z,3900.00
2018-05-13T06:09:29.155Z,4188.00
2018-05-13T06:10:29.141Z,4036.00
2018-05-13T06:11:29.048Z,4252.00
2018-05-13T06:12:29.018Z,4332.00
2018-05-13T06:13:29.054Z,4272.00
2018-05-13T06:14:29.001Z,4380.00
2018-05-13T06:15:29.033Z,4528.00
2018-05-13T06:16:29.014Z,4872.00
2018-05-13T06:17:28.963Z,5588.00
2018-05-13T06:18:28.930Z,5004.00
2018-05-13T06:19:28.912Z,5024.00
2018-05-13T06:20:28.900Z,4988.00
2018-05-13T06:21:28.921Z,4980.00
2018-05-13T06:22:28.876Z,4920.00
2018-05-13T06:23:28.885Z,4848.00
2018-05-13T06:24:28.931Z,4740.00
2018-05-13T06:25:28.872Z,4768.00
2018-05-13T06:26:28.850Z,4732.00
2018-05-13T06:27:28.817Z,4980.00
2018-05-13T06:28:28.807Z,5180.00
2018-05-13T06:29:28.782Z,4916.00
2018-05-13T06:30:28.766Z,4564.00
2018-05-13T06:31:28.766Z,4232.00
2018-05-13T06:32:28.762Z,4728.00
2018-05-13T06:33:28.742Z,4688.00
2018-05-13T06:34:28.716Z,5040.00
2018-05-13T06:35:28.705Z,5280.00
2018-05-13T06:36:28.685Z,5020.00
2018-05-13T06:37:28.684Z,4744.00
2018-05-13T06:38:28.663Z,5460.00
2018-05-13T06:39:28.654Z,4488.00
2018-05-13T06:40:28.655Z,4432.00
2018-05-13T06:41:28.651Z,4336.00
2018-05-13T06:42:28.618Z,4860.00
2018-05-13T06:43:28.601Z,4436.00
2018-05-13T06:44:28.598Z,5140.00
2018-05-13T06:45:28.579Z,5580.00
2018-05-13T06:46:28.578Z,5212.00
2018-05-13T06:47:28.613Z,4656.00
2018-05-13T06:48:28.530Z,5380.00
2018-05-13T06:49:28.528Z,5308.00
2018-05-13T06:50:28.516Z,5668.00
2018-05-13T06:51:28.597Z,5468.00
2018-05-13T06:52:28.491Z,6848.00
2018-05-13T06:53:28.470Z,6660.00
2018-05-13T06:54:28.498Z,6796.00
2018-05-13T06:55:28.451Z,6860.00
2018-05-13T06:56:28.524Z,6716.00
2018-05-13T06:57:28.411Z,6732.00
2018-05-13T06:58:28.402Z,6072.00
2018-05-13T06:59:28.396Z,6520.00
2018-05-13T07:00:28.404Z,5884.00
2018-05-13T07:01:28.391Z,5280.00
2018-05-13T07:03:52.472Z,4680.00
2018-05-13T07:04:52.523Z,4716.00
2018-05-13T07:05:52.414Z,4716.00
2018-05-13T07:06:52.392Z,4628.00
2018-05-13T07:07:52.435Z,4588.00
2018-05-13T07:08:52.388Z,4520.00
2018-05-13T07:09:52.345Z,4536.00
2018-05-13T07:10:52.332Z,4516.00
2018-05-13T07:11:52.318Z,4452.00
2018-05-13T07:12:52.305Z,4564.00
2018-05-13T07:13:52.488Z,4632.00
2018-05-13T07:14:52.334Z,4788.00
2018-05-13T07:15:52.334Z,4976.00
2018-05-13T07:16:52.266Z,5380.00
2018-05-13T07:17:52.254Z,5480.00
2018-05-13T07:18:52.263Z,5576.00
2018-05-13T07:19:52.233Z,5732.00
2018-05-13T07:20:52.224Z,5864.00
2018-05-13T07:21:52.282Z,6028.00
2018-05-13T07:22:52.223Z,6032.00
2018-05-13T07:23:52.253Z,6180.00
2018-05-13T07:24:52.182Z,6236.00
2018-05-13T07:25:52.153Z,6332.00
2018-05-13T07:26:52.128Z,6496.00
2018-05-13T07:27:52.169Z,6488.00
2018-05-13T07:28:52.125Z,6512.00
2018-05-13T07:29:52.132Z,6264.00
2018-05-13T07:30:52.168Z,5920.00
2018-05-13T07:31:52.065Z,5540.00
2018-05-13T07:32:52.072Z,5372.00
2018-05-13T07:33:52.086Z,5344.00
2018-05-13T07:34:52.068Z,5308.00
2018-05-13T07:35:52.049Z,5320.00
2018-05-13T07:36:52.010Z,5408.00
2018-05-13T07:37:52.033Z,5644.00
2018-05-13T07:38:52.045Z,5584.00
2018-05-13T07:39:51.991Z,5484.00
2018-05-13T07:40:51.954Z,5560.00
2018-05-13T07:41:51.940Z,5612.00
2018-05-13T07:42:51.933Z,5724.00
2018-05-13T07:43:51.922Z,6104.00
2018-05-13T07:44:51.976Z,6712.00
2018-05-13T07:45:51.884Z,7184.00
2018-05-13T07:46:51.902Z,7024.00
2018-05-13T07:47:51.856Z,6876.00
2018-05-13T07:48:51.861Z,6636.00
2018-05-13T07:49:51.856Z,6452.00
2018-05-13T07:50:51.842Z,6432.00
2018-05-13T07:51:51.816Z,6468.00
2018-05-13T07:52:51.832Z,6704.00
2018-05-13T07:53:51.808Z,6824.00
2018-05-13T07:54:51.795Z,6848.00
2018-05-13T07:55:51.777Z,6892.00
2018-05-13T07:56:51.794Z,6884.00
2018-05-13T07:57:51.801Z,6776.00
2018-05-13T07:58:51.742Z,6824.00
2018-05-13T07:59:51.725Z,6992.00
2018-05-13T08:00:51.754Z,7056.00
2018-05-13T08:01:51.692Z,7020.00
2018-05-13T08:02:51.714Z,6848.00
2018-05-13T08:03:51.695Z,6584.00
2018-05-13T08:04:51.651Z,6372.00
2018-05-13T08:05:51.679Z,6236.00
2018-05-13T08:06:51.654Z,6248.00
2018-05-13T08:09:24.828Z,6264.00
2018-05-13T08:10:14.636Z,6260.00
2018-05-13T08:11:14.631Z,6464.00
2018-05-13T08:12:14.614Z,6896.00
2018-05-13T08:13:14.615Z,7184.00
2018-05-13T08:14:14.603Z,7560.00
2018-05-13T08:15:14.581Z,7652.00
2018-05-13T08:16:14.564Z,7460.00
2018-05-13T08:17:14.569Z,7380.00
2018-05-13T08:18:14.545Z,7388.00
2018-05-13T08:19:14.550Z,7480.00
2018-05-13T08:20:14.525Z,7672.00
2018-05-13T08:21:14.817Z,7464.00
2018-05-13T08:22:14.487Z,7144.00
2018-05-13T08:23:14.517Z,7044.00
2018-05-13T08:24:14.596Z,7164.00
2018-05-13T08:25:14.455Z,7196.00
2018-05-13T08:26:14.441Z,7268.00
2018-05-13T08:27:14.430Z,7280.00
2018-05-13T08:28:14.417Z,7208.00
2018-05-13T08:29:14.414Z,7264.00
2018-05-13T08:30:14.398Z,7228.00
2018-05-13T08:31:14.407Z,6920.00
2018-05-13T08:32:14.376Z,6512.00
2018-05-13T08:33:14.368Z,6124.00
2018-05-13T08:34:14.344Z,5972.00
2018-05-13T08:35:14.436Z,6064.00
2018-05-13T08:36:14.321Z,6136.00
2018-05-13T08:37:14.326Z,5756.00
2018-05-13T08:38:14.327Z,5096.00
2018-05-13T08:39:14.289Z,4380.00
2018-05-13T08:40:14.283Z,3744.00
2018-05-13T08:41:14.272Z,3332.00
2018-05-13T08:42:14.277Z,3296.00
2018-05-13T08:43:14.267Z,3472.00
2018-05-13T08:44:14.267Z,3512.00
2018-05-13T08:45:14.220Z,3324.00
2018-05-13T08:46:14.207Z,2984.00
2018-05-13T08:47:14.187Z,2672.00
2018-05-13T08:48:14.179Z,2632.00
2018-05-13T08:49:14.165Z,2696.00
2018-05-13T08:50:15.774Z,2840.00
2018-05-13T08:51:14.172Z,2908.00
2018-05-13T08:52:14.129Z,2748.00
2018-05-13T08:53:14.724Z,2620.00
2018-05-13T08:54:14.146Z,2608.00
2018-05-13T08:55:14.098Z,2636.00
2018-05-13T08:56:14.104Z,2528.00
2018-05-13T08:57:14.066Z,2428.00
2018-05-13T08:58:14.046Z,2464.00
2018-05-13T08:59:14.045Z,2484.00
2018-05-13T09:00:14.030Z,2356.00
2018-05-13T09:01:14.021Z,2132.00
2018-05-13T09:02:14.025Z,1972.00
2018-05-13T09:03:14.010Z,2220.00
2018-05-13T09:04:13.974Z,2972.00
2018-05-13T09:05:13.987Z,3636.00
2018-05-13T09:06:13.971Z,4004.00
2018-05-13T09:07:14.013Z,4072.00
2018-05-13T09:09:48.142Z,3336.00
2018-05-13T09:12:11.251Z,4320.00
2018-05-13T09:13:01.157Z,5024.00
2018-05-13T09:15:24.135Z,6568.00
2018-05-13T09:17:57.900Z,6980.00
2018-05-13T09:21:01.949Z,7524.00
2018-05-13T09:21:50.597Z,7292.00
2018-05-13T09:22:50.583Z,7224.00
2018-05-13T09:25:22.987Z,6908.00
2018-05-13T09:26:14.217Z,6924.00
2018-05-13T09:28:09.637Z,7636.00
2018-05-13T09:29:20.552Z,8472.00
2018-05-13T09:31:04.112Z,8684.00
2018-05-13T09:33:37.249Z,8892.00
2018-05-13T09:35:52.244Z,8632.00
2018-05-13T09:36:51.818Z,8536.00
2018-05-13T09:37:51.751Z,8508.00
2018-05-13T09:38:51.767Z,8292.00
2018-05-13T09:39:51.775Z,7844.00
2018-05-13T09:40:51.750Z,7416.00
2018-05-13T09:41:51.714Z,6804.00
2018-05-13T09:42:51.692Z,6440.00
2018-05-13T09:43:51.812Z,6224.00
2018-05-13T09:44:51.745Z,6148.00
2018-05-13T09:45:51.688Z,6104.00
2018-05-13T09:46:51.652Z,6096.00
2018-05-13T09:47:51.671Z,6136.00
2018-05-13T09:48:51.645Z,6116.00
2018-05-13T09:49:51.603Z,6036.00
2018-05-13T09:52:27.264Z,6328.00
